createdAt,value
2019-06-20T00:01:09.086Z,20.80
2019-06-20T00:03:38.522Z,20.90
2019-06-20T00:06:07.978Z,20.80
2019-06-20T00:08:37.422Z,20.90
2019-06-20T00:11:06.803Z,20.90
2019-06-20T00:13:36.252Z,21.00
2019-06-20T00:16:05.620Z,21.00
2019-06-20T00:18:35.014Z,21.10
2019-06-20T00:21:04.401Z,21.10
2019-06-20T00:23:33.800Z,21.20
2019-06-20T00:26:03.269Z,21.20
2019-06-20T00:28:32.615Z,21.20
2019-06-20T00:31:02.002Z,21.20
2019-06-20T00:33:31.392Z,21.20
2019-06-20T00:36:00.795Z,21.20
2019-06-20T00:38:30.253Z,21.20
2019-06-20T00:40:59.629Z,21.20
2019-06-20T00:43:29.031Z,21.20
2019-06-20T00:45:58.414Z,21.20
2019-06-20T00:48:27.941Z,21.20
2019-06-20T00:50:57.342Z,21.20
2019-06-20T00:53:26.704Z,21.20
2019-06-20T00:55:56.103Z,21.20
2019-06-20T00:58:25.546Z,21.20
2019-06-20T01:00:55.047Z,21.20
2019-06-20T01:03:25.413Z,21.20
2019-06-20T01:05:54.845Z,21.20
2019-06-20T01:08:25.293Z,21.20
2019-06-20T01:10:54.697Z,21.20
2019-06-20T01:13:33.033Z,21.10
2019-06-20T01:15:55.139Z,21.10
2019-06-20T01:18:24.527Z,21.00
2019-06-20T01:20:53.897Z,21.00
2019-06-20T01:23:23.362Z,20.90
2019-06-20T01:25:53.726Z,20.90
2019-06-20T01:28:23.074Z,20.80
2019-06-20T01:30:52.486Z,20.80
2019-06-20T01:33:21.861Z,20.80
2019-06-20T01:35:51.244Z,20.70
2019-06-20T01:38:20.708Z,20.70
2019-06-20T01:40:50.071Z,20.60
2019-06-20T01:43:19.507Z,20.60
2019-06-20T01:45:48.851Z,20.60
2019-06-20T01:48:18.247Z,20.60
2019-06-20T01:50:47.639Z,20.60
2019-06-20T01:53:17.026Z,20.50
2019-06-20T01:55:46.390Z,20.50
2019-06-20T01:58:15.771Z,20.50
2019-06-20T02:00:49.691Z,20.50
2019-06-20T02:03:19.146Z,20.50
2019-06-20T02:05:49.585Z,20.40
2019-06-20T02:08:32.654Z,20.40
2019-06-20T02:11:02.081Z,20.40
2019-06-20T02:13:32.504Z,20.40
2019-06-20T02:16:01.984Z,20.30
2019-06-20T02:18:31.363Z,20.20
2019-06-20T02:21:00.757Z,20.10
2019-06-20T02:23:30.147Z,20.00
2019-06-20T02:25:59.541Z,20.00
2019-06-20T02:28:28.902Z,19.90
2019-06-20T02:30:58.292Z,19.90
2019-06-20T02:33:27.692Z,19.90
2019-06-20T02:35:57.138Z,19.90
2019-06-20T02:38:26.542Z,19.80
2019-06-20T02:40:55.895Z,19.80
2019-06-20T02:43:25.282Z,19.70
2019-06-20T02:45:54.699Z,19.70
2019-06-20T02:48:24.064Z,19.70
2019-06-20T02:50:53.464Z,19.70
2019-06-20T02:53:22.819Z,19.70
2019-06-20T02:55:52.235Z,19.70
2019-06-20T02:58:21.610Z,19.70
2019-06-20T03:00:59.871Z,19.60
2019-06-20T03:03:29.254Z,19.60
2019-06-20T03:05:58.907Z,19.60
2019-06-20T03:08:28.215Z,19.60
2019-06-20T03:10:57.601Z,19.50
2019-06-20T03:13:26.984Z,19.50
2019-06-20T03:15:56.378Z,19.60
2019-06-20T03:18:25.744Z,19.50
2019-06-20T03:20:55.138Z,19.60
2019-06-20T03:23:24.538Z,19.50
2019-06-20T03:25:53.908Z,19.50
2019-06-20T03:28:23.293Z,19.50
2019-06-20T03:30:52.673Z,19.50
2019-06-20T03:33:22.048Z,19.50
2019-06-20T03:35:51.435Z,19.50
2019-06-20T03:38:20.832Z,19.60
2019-06-20T03:40:50.210Z,19.60
2019-06-20T03:43:19.611Z,19.50
2019-06-20T03:45:48.990Z,19.60
2019-06-20T03:48:18.358Z,19.60
2019-06-20T03:50:47.748Z,19.60
2019-06-20T03:53:36.561Z,19.60
2019-06-20T03:56:05.950Z,19.60
2019-06-20T03:58:35.514Z,19.60
2019-06-20T04:01:04.895Z,19.70
2019-06-20T04:03:34.429Z,19.60
2019-06-20T04:06:03.778Z,19.70
2019-06-20T04:08:33.181Z,19.70
2019-06-20T04:11:02.588Z,19.70
2019-06-20T04:13:31.960Z,19.70
2019-06-20T04:16:01.363Z,19.80
2019-06-20T04:18:30.789Z,19.80
2019-06-20T04:21:01.250Z,19.80
2019-06-20T04:23:30.638Z,19.90
2019-06-20T04:26:00.002Z,19.90
2019-06-20T04:28:29.392Z,19.90
2019-06-20T04:30:59.048Z,20.00
2019-06-20T04:33:28.418Z,20.00
2019-06-20T04:35:58.971Z,20.00
2019-06-20T04:38:28.355Z,20.10
2019-06-20T04:40:57.723Z,20.10
2019-06-20T04:43:27.115Z,20.20
2019-06-20T04:45:58.114Z,20.30
2019-06-20T04:48:27.614Z,20.30
2019-06-20T04:50:57.150Z,20.40
2019-06-20T04:53:26.541Z,20.40
2019-06-20T04:55:56.016Z,20.50
2019-06-20T04:58:25.400Z,20.50
2019-06-20T05:00:54.858Z,20.50
2019-06-20T05:03:24.258Z,20.60
2019-06-20T05:05:53.621Z,20.60
2019-06-20T05:08:23.008Z,20.70
2019-06-20T05:10:52.400Z,20.70
2019-06-20T05:13:21.792Z,20.70
2019-06-20T05:15:53.008Z,20.80
2019-06-20T05:18:22.235Z,20.80
2019-06-20T05:20:51.665Z,20.80
2019-06-20T05:23:21.057Z,20.90
2019-06-20T05:25:50.424Z,20.90
2019-06-20T05:28:19.821Z,21.00
2019-06-20T05:30:49.224Z,21.10
2019-06-20T05:33:18.595Z,21.20
2019-06-20T05:35:47.983Z,21.20
2019-06-20T05:38:17.356Z,21.30
2019-06-20T05:40:46.757Z,21.40
2019-06-20T05:43:16.140Z,21.50
2019-06-20T05:45:48.641Z,21.60
2019-06-20T05:48:16.578Z,21.60
2019-06-20T05:50:48.551Z,21.70
2019-06-20T05:53:18.150Z,21.80
2019-06-20T05:55:47.535Z,21.90
2019-06-20T05:58:16.923Z,21.90
2019-06-20T06:00:46.316Z,22.00
2019-06-20T06:03:16.007Z,22.00
2019-06-20T06:05:45.620Z,22.10
2019-06-20T06:08:15.063Z,22.10
2019-06-20T06:10:44.801Z,22.20
2019-06-20T06:13:14.199Z,22.30
2019-06-20T06:15:44.036Z,22.30
2019-06-20T06:18:14.228Z,22.30
2019-06-20T06:20:44.957Z,22.40
2019-06-20T06:23:13.951Z,22.40
2019-06-20T06:25:43.338Z,22.40
2019-06-20T06:28:12.858Z,22.40
2019-06-20T06:30:42.333Z,22.50
2019-06-20T06:33:12.020Z,22.50
2019-06-20T06:35:41.428Z,22.50
2019-06-20T06:38:10.797Z,22.50
2019-06-20T06:40:40.279Z,22.60
2019-06-20T06:43:09.660Z,22.60
2019-06-20T06:45:39.066Z,22.60
2019-06-20T06:48:08.449Z,22.70
2019-06-20T06:50:37.830Z,22.70
2019-06-20T06:53:08.270Z,22.70
2019-06-20T06:55:37.659Z,22.80
2019-06-20T06:58:07.055Z,22.80
2019-06-20T07:00:36.448Z,22.90
2019-06-20T07:03:05.852Z,22.90
2019-06-20T07:05:35.211Z,22.90
2019-06-20T07:08:04.618Z,23.00
2019-06-20T07:10:34.094Z,23.00
2019-06-20T07:13:03.492Z,23.10
2019-06-20T07:15:32.914Z,23.10
2019-06-20T07:18:02.304Z,23.10
2019-06-20T07:20:31.676Z,23.20
2019-06-20T07:23:01.064Z,23.30
2019-06-20T07:25:30.442Z,23.30
2019-06-20T07:27:59.806Z,23.30
2019-06-20T07:30:29.193Z,23.30
2019-06-20T07:32:58.639Z,23.40
2019-06-20T07:35:28.041Z,23.50
2019-06-20T07:37:57.764Z,23.60
2019-06-20T07:40:27.184Z,23.70
2019-06-20T07:42:56.623Z,23.80
2019-06-20T07:45:27.841Z,23.90
2019-06-20T07:47:57.527Z,24.00
2019-06-20T07:50:27.007Z,24.10
2019-06-20T07:53:01.854Z,24.20
2019-06-20T07:55:27.612Z,24.30
2019-06-20T07:57:56.996Z,24.40
2019-06-20T08:00:26.363Z,24.40
2019-06-20T08:02:55.742Z,24.40
2019-06-20T08:05:25.198Z,24.50
2019-06-20T08:07:54.677Z,24.60
2019-06-20T08:10:24.056Z,24.70
2019-06-20T08:12:53.435Z,24.70
2019-06-20T08:15:22.865Z,24.80
2019-06-20T08:17:52.249Z,24.90
2019-06-20T08:20:21.627Z,25.00
2019-06-20T08:22:51.079Z,25.10
2019-06-20T08:25:21.024Z,25.10
2019-06-20T08:27:53.025Z,25.20
2019-06-20T08:30:28.581Z,25.20
2019-06-20T08:33:00.167Z,25.20
2019-06-20T08:35:30.343Z,25.20
2019-06-20T08:38:01.488Z,25.30
2019-06-20T08:40:33.753Z,25.30
2019-06-20T08:43:04.148Z,25.30
2019-06-20T08:45:33.783Z,25.40
2019-06-20T08:48:04.609Z,25.40
2019-06-20T08:50:34.252Z,25.50
2019-06-20T08:53:04.055Z,25.60
2019-06-20T08:55:33.451Z,25.70
2019-06-20T08:58:03.432Z,25.80
2019-06-20T09:00:32.482Z,25.80
2019-06-20T09:05:32.115Z,26.00
2019-06-20T09:10:40.065Z,26.20
2019-06-20T09:13:10.188Z,26.30
2019-06-20T09:15:38.863Z,26.40
2019-06-20T09:18:08.453Z,26.40
2019-06-20T09:20:37.914Z,26.50
2019-06-20T09:23:08.334Z,26.60
2019-06-20T09:25:37.726Z,26.70
2019-06-20T09:28:07.184Z,26.80
2019-06-20T09:30:36.833Z,26.90
2019-06-20T09:33:06.350Z,27.00
2019-06-20T09:35:35.719Z,27.10
2019-06-20T09:38:05.206Z,27.10
2019-06-20T09:40:34.620Z,27.20
2019-06-20T09:43:04.003Z,27.30
2019-06-20T09:45:33.386Z,27.40
2019-06-20T09:48:02.838Z,27.40
2019-06-20T09:50:32.321Z,27.50
2019-06-20T09:53:01.707Z,27.60
2019-06-20T09:55:31.069Z,27.70
2019-06-20T09:58:00.442Z,27.70
2019-06-20T10:00:29.915Z,27.80
2019-06-20T10:02:59.298Z,27.90
2019-06-20T10:05:28.679Z,27.90
2019-06-20T10:07:58.038Z,27.90
2019-06-20T10:10:29.131Z,27.90
2019-06-20T10:12:59.657Z,28.00
2019-06-20T10:15:31.294Z,28.00
2019-06-20T10:18:00.690Z,28.10
2019-06-20T10:20:30.049Z,28.10
2019-06-20T10:22:59.426Z,28.20
2019-06-20T10:25:28.804Z,28.20
2019-06-20T10:27:58.311Z,28.30
2019-06-20T10:30:27.840Z,28.50
2019-06-20T10:32:57.746Z,28.50
2019-06-20T10:35:26.583Z,28.60
2019-06-20T10:37:57.236Z,28.70
2019-06-20T10:40:26.936Z,28.70
2019-06-20T10:42:56.899Z,28.70
2019-06-20T10:45:28.263Z,28.70
2019-06-20T10:47:57.673Z,28.80
2019-06-20T10:50:27.047Z,28.90
2019-06-20T10:52:56.431Z,29.00
2019-06-20T10:55:25.854Z,29.00
2019-06-20T10:57:55.178Z,29.10
2019-06-20T11:00:32.400Z,29.10
2019-06-20T11:02:56.411Z,29.20
2019-06-20T11:05:25.766Z,29.30
2019-06-20T11:07:55.166Z,29.40
2019-06-20T11:10:24.627Z,29.50
2019-06-20T11:12:56.165Z,29.50
2019-06-20T11:15:25.062Z,29.60
2019-06-20T11:17:56.697Z,29.60
2019-06-20T11:20:25.450Z,29.50
2019-06-20T11:22:54.843Z,29.60
2019-06-20T11:25:24.211Z,29.60
2019-06-20T11:27:53.583Z,29.70
2019-06-20T11:30:27.287Z,29.70
2019-06-20T11:33:16.118Z,29.80
2019-06-20T11:35:45.479Z,29.90
2019-06-20T11:38:14.854Z,29.90
2019-06-20T11:40:44.234Z,30.00
2019-06-20T11:43:13.614Z,30.10
2019-06-20T11:45:43.077Z,30.10
2019-06-20T11:48:12.437Z,30.20
2019-06-20T11:50:42.427Z,30.20
2019-06-20T11:53:11.913Z,30.30
2019-06-20T11:55:41.953Z,30.30
2019-06-20T11:58:11.315Z,30.40
2019-06-20T12:00:40.695Z,30.40
2019-06-20T12:03:10.083Z,30.50
2019-06-20T12:05:40.179Z,30.50
2019-06-20T12:08:12.747Z,30.50
2019-06-20T12:10:43.165Z,30.50
2019-06-20T12:13:12.540Z,30.50
2019-06-20T12:15:42.837Z,30.60
2019-06-20T12:18:12.416Z,30.60
2019-06-20T12:20:42.882Z,30.60
2019-06-20T12:23:12.410Z,30.70
2019-06-20T12:25:42.666Z,30.80
2019-06-20T12:28:12.212Z,30.90
2019-06-20T12:30:41.683Z,30.90
2019-06-20T12:33:11.269Z,30.80
2019-06-20T12:35:41.341Z,30.70
2019-06-20T12:38:14.958Z,30.80
2019-06-20T12:40:43.979Z,30.80
2019-06-20T12:43:13.491Z,30.90
2019-06-20T12:45:42.906Z,31.00
2019-06-20T12:48:12.317Z,31.00
2019-06-20T12:50:42.989Z,31.00
2019-06-20T12:53:12.499Z,31.00
2019-06-20T12:55:42.470Z,31.00
2019-06-20T12:58:12.095Z,31.10
2019-06-20T13:00:42.995Z,31.10
2019-06-20T13:03:12.450Z,31.10
2019-06-20T13:05:43.160Z,31.10
2019-06-20T13:08:13.597Z,31.20
2019-06-20T13:10:44.185Z,31.20
2019-06-20T13:13:13.611Z,31.30
2019-06-20T13:15:43.036Z,31.30
2019-06-20T13:18:12.661Z,31.30
2019-06-20T13:20:42.300Z,31.30
2019-06-20T13:23:12.766Z,31.20
2019-06-20T13:25:42.615Z,31.10
2019-06-20T13:28:11.416Z,31.00
2019-06-20T13:30:43.773Z,30.90
2019-06-20T13:33:15.892Z,30.80
2019-06-20T13:35:45.413Z,30.60
2019-06-20T13:38:14.843Z,30.40
2019-06-20T13:40:45.361Z,30.20
2019-06-20T13:43:15.035Z,30.00
2019-06-20T13:45:44.799Z,29.70
2019-06-20T13:48:14.474Z,29.50
2019-06-20T13:50:45.365Z,29.30
2019-06-20T13:53:14.777Z,29.10
2019-06-20T13:55:45.527Z,28.90
2019-06-20T13:58:15.183Z,28.70
2019-06-20T14:00:45.582Z,28.60
2019-06-20T14:03:15.023Z,28.60
2019-06-20T14:05:45.496Z,28.60
2019-06-20T14:08:14.840Z,28.70
2019-06-20T14:10:47.694Z,28.80
2019-06-20T14:13:19.547Z,28.80
2019-06-20T14:15:48.672Z,28.80
2019-06-20T14:18:18.102Z,28.90
2019-06-20T14:20:48.530Z,28.90
2019-06-20T14:23:17.957Z,29.00
2019-06-20T14:25:48.670Z,29.10
2019-06-20T14:28:18.202Z,29.10
2019-06-20T14:30:48.327Z,29.20
2019-06-20T14:33:17.940Z,29.20
2019-06-20T14:35:51.204Z,29.20
2019-06-20T14:38:22.314Z,29.20
2019-06-20T14:40:52.436Z,29.10
2019-06-20T14:43:21.984Z,29.00
2019-06-20T14:45:51.361Z,28.90
2019-06-20T14:48:21.073Z,28.80
2019-06-20T14:50:51.408Z,28.60
2019-06-20T14:53:21.931Z,28.40
2019-06-20T14:55:51.738Z,28.20
2019-06-20T14:58:20.644Z,28.00
2019-06-20T15:00:49.955Z,27.80
2019-06-20T15:03:19.314Z,27.70
2019-06-20T15:05:50.041Z,27.50
2019-06-20T15:08:20.477Z,27.40
2019-06-20T15:10:50.279Z,27.30
2019-06-20T15:13:19.821Z,27.20
2019-06-20T15:15:49.594Z,27.10
2019-06-20T15:18:20.035Z,27.00
2019-06-20T15:20:50.257Z,26.90
2019-06-20T15:23:20.890Z,26.80
2019-06-20T15:25:56.180Z,26.70
2019-06-20T15:28:27.319Z,26.70
2019-06-20T15:30:57.303Z,26.70
2019-06-20T15:33:26.137Z,26.60
2019-06-20T15:35:56.960Z,26.60
2019-06-20T15:38:26.432Z,26.60
2019-06-20T15:40:55.816Z,26.60
2019-06-20T15:43:25.197Z,26.60
2019-06-20T15:45:55.752Z,26.60
2019-06-20T15:48:25.292Z,26.60
2019-06-20T15:50:54.683Z,26.60
2019-06-20T15:53:24.049Z,26.60
2019-06-20T15:55:53.427Z,26.60
2019-06-20T15:58:22.823Z,26.70
2019-06-20T16:00:52.252Z,26.70
2019-06-20T16:03:21.712Z,26.70
2019-06-20T16:05:51.077Z,26.70
2019-06-20T16:08:20.464Z,26.70
2019-06-20T16:10:49.894Z,26.60
2019-06-20T16:13:19.226Z,26.60
2019-06-20T16:15:48.603Z,26.70
2019-06-20T16:18:18.009Z,26.70
2019-06-20T16:20:47.372Z,26.60
2019-06-20T16:23:16.759Z,26.70
2019-06-20T16:25:47.791Z,26.70
2019-06-20T16:28:17.160Z,26.70
2019-06-20T16:30:46.559Z,26.70
2019-06-20T16:33:24.648Z,26.70
2019-06-20T16:35:48.082Z,26.70
2019-06-20T16:38:17.457Z,26.70
2019-06-20T16:40:47.978Z,26.70
2019-06-20T16:43:17.334Z,26.60
2019-06-20T16:45:46.763Z,26.60
2019-06-20T16:48:16.131Z,26.60
2019-06-20T16:50:45.573Z,26.50
2019-06-20T16:53:16.029Z,26.50
2019-06-20T16:55:45.406Z,26.50
2019-06-20T16:58:14.863Z,26.40
2019-06-20T17:00:44.240Z,26.40
2019-06-20T17:03:13.761Z,26.40
2019-06-20T17:05:43.256Z,26.30
2019-06-20T17:08:12.646Z,26.30
2019-06-20T17:10:42.031Z,26.30
2019-06-20T17:13:11.393Z,26.20
2019-06-20T17:15:40.779Z,26.20
2019-06-20T17:18:10.167Z,26.20
2019-06-20T17:20:39.544Z,26.10
2019-06-20T17:23:08.925Z,26.10
2019-06-20T17:25:38.281Z,26.00
2019-06-20T17:28:07.671Z,26.00
2019-06-20T17:30:37.110Z,26.00
2019-06-20T17:33:06.456Z,25.90
2019-06-20T17:35:35.877Z,25.90
2019-06-20T17:38:05.499Z,25.90
2019-06-20T17:40:34.951Z,25.80
2019-06-20T17:43:04.394Z,25.80
2019-06-20T17:45:33.826Z,25.80
2019-06-20T17:48:03.424Z,25.80
2019-06-20T17:50:32.814Z,25.80
2019-06-20T17:53:02.251Z,25.70
2019-06-20T17:55:31.700Z,25.70
2019-06-20T17:58:02.175Z,25.70
2019-06-20T18:00:31.633Z,25.70
2019-06-20T18:03:01.167Z,25.60
2019-06-20T18:05:30.519Z,25.60
2019-06-20T18:08:14.070Z,25.60
2019-06-20T18:10:30.942Z,25.60
2019-06-20T18:13:00.309Z,25.60
2019-06-20T18:15:33.032Z,25.50
2019-06-20T18:18:00.710Z,25.50
2019-06-20T18:20:30.068Z,25.40
2019-06-20T18:22:59.456Z,25.30
2019-06-20T18:25:31.645Z,25.20
2019-06-20T18:27:59.836Z,25.20
2019-06-20T18:30:43.663Z,25.10
2019-06-20T18:33:13.032Z,25.00
2019-06-20T18:35:42.401Z,24.90
2019-06-20T18:38:11.852Z,24.90
2019-06-20T18:40:41.234Z,24.80
2019-06-20T18:43:10.623Z,24.70
2019-06-20T18:45:39.999Z,24.70
2019-06-20T18:48:09.369Z,24.60
2019-06-20T18:50:38.759Z,24.50
2019-06-20T18:53:08.143Z,24.50
2019-06-20T18:55:37.500Z,24.40
2019-06-20T18:58:06.879Z,24.40
2019-06-20T19:00:36.349Z,24.30
2019-06-20T19:03:06.798Z,24.30
2019-06-20T19:05:36.175Z,24.30
2019-06-20T19:08:06.611Z,24.20
2019-06-20T19:10:36.001Z,24.20
2019-06-20T19:13:05.387Z,24.20
2019-06-20T19:15:35.106Z,24.10
2019-06-20T19:18:04.791Z,24.10
2019-06-20T19:20:34.713Z,24.10
2019-06-20T19:23:04.443Z,24.10
2019-06-20T19:25:35.905Z,24.10
2019-06-20T19:28:05.830Z,24.00
2019-06-20T19:30:41.421Z,24.10
2019-06-20T19:33:11.239Z,24.00
2019-06-20T19:35:41.631Z,24.10
2019-06-20T19:38:11.189Z,24.00
2019-06-20T19:40:46.762Z,24.00
2019-06-20T19:43:17.319Z,24.00
2019-06-20T19:45:46.761Z,24.00
2019-06-20T19:48:16.234Z,24.00
2019-06-20T19:50:45.647Z,23.90
2019-06-20T19:53:14.990Z,23.90
2019-06-20T19:55:44.455Z,23.80
2019-06-20T19:58:13.859Z,23.80
2019-06-20T20:00:43.679Z,23.70
2019-06-20T20:03:14.040Z,23.70
2019-06-20T20:05:44.247Z,23.60
2019-06-20T20:08:12.942Z,23.50
2019-06-20T20:10:46.620Z,23.50
2019-06-20T20:13:16.751Z,23.40
2019-06-20T20:15:46.210Z,23.30
2019-06-20T20:18:15.743Z,23.20
2019-06-20T20:21:04.596Z,23.20
2019-06-20T20:23:33.967Z,23.10
2019-06-20T20:26:03.335Z,23.00
2019-06-20T20:28:32.719Z,22.90
2019-06-20T20:31:02.146Z,22.90
2019-06-20T20:33:31.536Z,22.80
2019-06-20T20:36:02.007Z,22.80
2019-06-20T20:38:31.621Z,22.80
2019-06-20T20:41:01.010Z,22.70
2019-06-20T20:43:30.372Z,22.70
2019-06-20T20:45:59.835Z,22.60
2019-06-20T20:48:29.224Z,22.50
2019-06-20T20:50:58.619Z,22.50
2019-06-20T20:53:28.012Z,22.40
2019-06-20T20:55:57.402Z,22.30
2019-06-20T20:58:26.807Z,22.20
2019-06-20T21:01:08.626Z,22.10
2019-06-20T21:03:38.154Z,22.10
2019-06-20T21:06:07.609Z,22.00
2019-06-20T21:08:36.995Z,21.90
2019-06-20T21:11:06.452Z,21.90
2019-06-20T21:13:36.775Z,21.90
2019-06-20T21:16:05.482Z,21.90
2019-06-20T21:18:34.895Z,21.80
2019-06-20T21:21:04.251Z,21.80
2019-06-20T21:23:34.000Z,21.80
2019-06-20T21:26:03.419Z,21.70
2019-06-20T21:28:32.812Z,21.70
2019-06-20T21:31:02.192Z,21.60
2019-06-20T21:33:32.642Z,21.50
2019-06-20T21:36:08.390Z,21.40
2019-06-20T21:38:34.009Z,21.40
2019-06-20T21:41:03.411Z,21.30
2019-06-20T21:43:32.786Z,21.30
2019-06-20T21:46:06.676Z,21.30
2019-06-20T21:48:34.255Z,21.20
2019-06-20T21:51:03.886Z,21.20
2019-06-20T21:53:33.418Z,21.20
2019-06-20T21:56:02.809Z,21.20
2019-06-20T21:58:32.207Z,21.20
2019-06-20T22:01:01.759Z,21.20
2019-06-20T22:03:32.779Z,21.20
2019-06-20T22:06:02.212Z,21.20
2019-06-20T22:08:31.684Z,21.10
2019-06-20T22:11:01.110Z,21.00
2019-06-20T22:13:30.550Z,20.90
2019-06-20T22:15:59.931Z,20.80
2019-06-20T22:18:29.324Z,20.70
2019-06-20T22:20:58.696Z,20.70
2019-06-20T22:23:28.097Z,20.70
2019-06-20T22:25:57.467Z,20.60
2019-06-20T22:28:26.900Z,20.60
2019-06-20T22:30:57.833Z,20.60
2019-06-20T22:33:27.227Z,20.60
2019-06-20T22:35:56.682Z,20.50
2019-06-20T22:38:26.080Z,20.40
2019-06-20T22:40:55.438Z,20.40
2019-06-20T22:43:24.824Z,20.40
2019-06-20T22:45:54.215Z,20.40
2019-06-20T22:48:23.625Z,20.40
2019-06-20T22:50:53.075Z,20.50
2019-06-20T22:53:22.435Z,20.50
2019-06-20T22:55:51.830Z,20.50
2019-06-20T22:58:21.211Z,20.60
2019-06-20T23:00:50.593Z,20.60
2019-06-20T23:03:19.979Z,20.60
2019-06-20T23:05:49.419Z,20.60
2019-06-20T23:08:18.862Z,20.60
2019-06-20T23:10:48.339Z,20.60
2019-06-20T23:13:17.691Z,20.50
2019-06-20T23:15:47.094Z,20.50
2019-06-20T23:18:16.463Z,20.60
2019-06-20T23:21:03.583Z,20.60
2019-06-20T23:23:16.841Z,20.60
2019-06-20T23:25:47.848Z,20.60
2019-06-20T23:28:17.203Z,20.70
2019-06-20T23:30:47.666Z,20.70
2019-06-20T23:33:17.042Z,20.70
2019-06-20T23:35:46.439Z,20.70
2019-06-20T23:38:15.808Z,20.70
2019-06-20T23:40:45.163Z,20.70
2019-06-20T23:43:14.549Z,20.70
2019-06-20T23:45:43.939Z,20.70
2019-06-20T23:48:13.299Z,20.70
2019-06-20T23:50:42.674Z,20.70
2019-06-20T23:53:16.774Z,20.60
2019-06-20T23:55:46.225Z,20.70
2019-06-20T23:58:15.672Z,20.60
